Time;durP1;ratioP1;P1;durP2;ratioP2;P2;SDS_P1;SDS_P2;PMS_P1;PMS_P2;Temp;Humidity;BMP_temperature;BMP_pressure;BME280_temperature;BME280_humidity;BME280_pressure;Samples;Min_cycle;Max_cycle;Signal;HPM_P1;HPM_P2
2022/01/03 00:01:28;;;;;;;5.10;1.67;;;14.20;77.50;;;;;;5095468;28;20032;-87
2022/01/03 00:03:58;;;;;;;5.05;1.42;;;14.10;77.40;;;;;;5072905;28;20035;-84
2022/01/03 00:06:24;;;;;;;5.13;1.65;;;14.10;77.40;;;;;;5102104;28;20073;-83
2022/01/03 00:08:50;;;;;;;4.90;1.52;;;14.10;77.40;;;;;;5095133;28;20449;-84
2022/01/03 00:11:18;;;;;;;5.07;1.60;;;14.10;77.40;;;;;;5083010;28;20525;-83
2022/01/03 00:13:49;;;;;;;5.70;1.60;;;14.10;77.40;;;;;;5101153;28;20065;-89
2022/01/03 00:16:16;;;;;;;5.53;1.80;;;14.10;77.40;;;;;;5092501;28;20463;-85
2022/01/03 00:18:42;;;;;;;4.28;1.40;;;14.10;77.40;;;;;;5083339;28;20028;-85
2022/01/03 00:21:13;;;;;;;4.22;1.65;;;14.10;77.40;;;;;;5086142;28;20036;-84
2022/01/03 00:23:46;;;;;;;3.10;1.50;;;14.10;77.40;;;;;;5092245;28;20047;-85
2022/01/03 00:26:13;;;;;;;4.72;1.73;;;14.10;77.40;;;;;;5072979;28;20060;-84
2022/01/03 00:28:45;;;;;;;4.75;1.95;;;14.10;77.40;;;;;;5074863;28;20476;-86
2022/01/03 00:31:11;;;;;;;2.75;1.38;;;14.10;77.40;;;;;;5092414;28;20123;-84
2022/01/03 00:33:40;;;;;;;3.95;1.80;;;14.10;77.40;;;;;;5083560;28;20460;-85
2022/01/03 00:36:06;;;;;;;4.97;1.58;;;14.10;77.40;;;;;;5104783;28;20024;-84
2022/01/03 00:38:34;;;;;;;4.78;1.55;;;14.10;77.40;;;;;;5083836;28;20032;-83
2022/01/03 00:41:03;;;;;;;6.03;1.77;;;14.10;77.40;;;;;;5096785;28;20032;-84
2022/01/03 00:43:31;;;;;;;5.30;1.60;;;14.10;77.40;;;;;;5083607;28;20062;-84
2022/01/03 00:45:57;;;;;;;6.05;1.80;;;14.10;77.40;;;;;;5092278;28;20060;-84
2022/01/03 00:48:24;;;;;;;5.03;1.48;;;14.00;77.40;;;;;;5080628;28;20452;-84
2022/01/03 00:50:51;;;;;;;4.82;2.05;;;14.10;77.50;;;;;;5096999;28;20085;-84
2022/01/03 00:53:17;;;;;;;5.03;1.48;;;14.10;77.50;;;;;;5081550;28;20028;-87
2022/01/03 00:56:04;;;;;;;4.63;1.58;;;14.10;77.40;;;;;;5096923;28;20028;-85
2022/01/03 00:58:45;;;;;;;4.65;1.50;;;14.00;77.50;;;;;;5092497;28;20032;-83
2022/01/03 01:01:12;;;;;;;5.90;1.63;;;14.00;77.50;;;;;;5105301;28;20089;-85
2022/01/03 01:03:39;;;;;;;4.55;1.77;;;14.00;77.40;;;;;;5079111;28;20089;-86
2022/01/03 01:06:08;;;;;;;4.85;1.48;;;14.00;77.50;;;;;;5080043;28;20032;-85
2022/01/03 01:08:36;;;;;;;5.18;1.83;;;14.00;77.50;;;;;;5087111;28;20468;-84
2022/01/03 01:11:06;;;;;;;4.80;1.60;;;14.00;77.50;;;;;;5096158;28;20032;-84
2022/01/03 01:13:34;;;;;;;6.97;1.70;;;14.00;77.50;;;;;;5095857;28;20024;-83
2022/01/03 01:16:06;;;;;;;5.07;1.70;;;14.00;77.50;;;;;;5087343;28;20455;-85
2022/01/03 01:18:37;;;;;;;5.32;1.88;;;14.00;77.50;;;;;;5094915;28;20070;-85
2022/01/03 01:21:05;;;;;;;3.80;1.60;;;14.00;77.40;;;;;;5108497;28;20528;-85
2022/01/03 01:23:33;;;;;;;5.35;1.60;;;14.00;77.50;;;;;;5071821;28;20043;-85
2022/01/03 01:28:46;;;;;;;4.53;1.42;;;14.00;77.50;;;;;;5095260;28;20472;-86
2022/01/03 01:31:22;;;;;;;3.15;1.35;;;14.00;77.40;;;;;;5084648;28;20038;-84
2022/01/03 01:33:52;;;;;;;5.35;1.83;;;14.00;77.50;;;;;;5089950;28;20062;-84
2022/01/03 01:36:23;;;;;;;4.72;1.65;;;14.00;77.50;;;;;;5096471;28;20027;-84
2022/01/03 01:38:51;;;;;;;4.28;1.42;;;14.00;77.50;;;;;;5086047;28;20025;-84
2022/01/03 01:41:20;;;;;;;4.22;1.48;;;13.90;77.40;;;;;;5076810;28;20028;-83
2022/01/03 01:43:50;;;;;;;3.40;1.63;;;14.00;77.50;;;;;;5102499;28;20028;-85
2022/01/03 01:46:20;;;;;;;5.60;1.40;;;14.00;77.50;;;;;;5087298;28;20469;-85
2022/01/03 01:48:51;;;;;;;3.88;1.60;;;14.00;77.50;;;;;;5092293;28;20486;-87
2022/01/03 01:51:22;;;;;;;4.40;1.25;;;14.00;77.50;;;;;;5088774;28;20020;-85
2022/01/03 01:53:53;;;;;;;4.47;1.60;;;13.90;77.40;;;;;;5094997;28;20028;-85
2022/01/03 01:56:26;;;;;;;3.72;1.88;;;14.00;77.50;;;;;;5088229;28;20460;-86
2022/01/03 01:59:10;;;;;;;5.78;1.92;;;13.90;77.40;;;;;;5091985;28;20020;-83
2022/01/03 02:01:51;;;;;;;3.38;1.40;;;13.90;77.40;;;;;;5095156;28;20111;-84
2022/01/03 02:04:27;;;;;;;4.15;1.48;;;13.90;77.50;;;;;;5094552;28;20031;-84
2022/01/03 02:06:57;;;;;;;3.78;1.60;;;13.90;77.40;;;;;;5103165;28;20016;-85
2022/01/03 02:09:43;;;;;;;3.97;1.50;;;13.90;77.40;;;;;;5093489;28;20028;-85
2022/01/03 02:12:16;;;;;;;5.10;1.70;;;13.90;77.60;;;;;;5094838;28;20483;-88
2022/01/03 02:14:44;;;;;;;3.08;1.38;;;13.90;77.50;;;;;;5103352;28;20023;-85
2022/01/03 02:17:13;;;;;;;4.60;1.67;;;13.90;77.50;;;;;;5094811;28;20019;-85
2022/01/03 02:19:40;;;;;;;5.55;1.67;;;13.80;77.40;;;;;;5082993;28;20043;-85
2022/01/03 02:22:10;;;;;;;6.28;2.03;;;13.80;77.40;;;;;;5083300;28;20111;-85
2022/01/03 02:24:44;;;;;;;5.20;1.77;;;13.90;77.50;;;;;;5080222;28;20039;-84
2022/01/03 02:27:10;;;;;;;5.88;1.98;;;13.80;77.40;;;;;;5074878;28;20118;-85
2022/01/03 02:29:36;;;;;;;5.85;1.58;;;13.90;77.50;;;;;;5068829;28;20036;-85
2022/01/03 02:32:02;;;;;;;5.35;1.58;;;13.90;77.40;;;;;;5088428;28;20020;-84
2022/01/03 02:34:29;;;;;;;5.53;1.65;;;13.80;77.40;;;;;;5103572;28;20019;-85
2022/01/03 02:36:57;;;;;;;7.32;1.85;;;13.80;77.40;;;;;;5089819;28;20032;-85
2022/01/03 02:39:23;;;;;;;4.30;1.65;;;13.80;77.40;;;;;;5085534;28;20028;-85
2022/01/03 02:41:49;;;;;;;5.82;1.80;;;13.80;77.40;;;;;;5096275;28;20032;-86
2022/01/03 02:44:19;;;;;;;6.57;2.10;;;13.80;77.40;;;;;;5077480;28;20452;-88
2022/01/03 02:46:45;;;;;;;4.97;1.67;;;13.80;77.40;;;;;;5094069;28;20059;-86
2022/01/03 02:49:11;;;;;;;5.25;1.67;;;13.80;77.40;;;;;;5085630;28;20055;-85
2022/01/03 02:51:38;;;;;;;5.53;1.50;;;13.80;77.40;;;;;;5077508;28;20024;-85
2022/01/03 02:54:06;;;;;;;4.95;1.67;;;13.80;77.40;;;;;;5086056;28;20021;-85
2022/01/03 02:56:34;;;;;;;4.55;1.60;;;13.80;77.40;;;;;;5077341;28;20073;-89
2022/01/03 02:59:00;;;;;;;3.85;1.50;;;13.80;77.40;;;;;;5094099;28;20029;-85
2022/01/03 03:01:27;;;;;;;4.60;1.52;;;13.80;77.40;;;;;;5101797;28;20130;-85
2022/01/03 03:03:55;;;;;;;4.85;1.98;;;13.80;77.40;;;;;;5081884;28;20051;-86
2022/01/03 03:06:21;;;;;;;6.97;1.80;;;13.80;77.40;;;;;;5076810;28;20024;-86
2022/01/03 03:08:48;;;;;;;5.32;1.83;;;13.80;77.40;;;;;;5085402;28;20083;-86
2022/01/03 03:11:14;;;;;;;5.53;1.85;;;13.80;77.40;;;;;;5110770;28;20028;-89
2022/01/03 03:13:40;;;;;;;4.88;1.55;;;13.80;77.40;;;;;;5082750;28;20034;-85
2022/01/03 03:16:06;;;;;;;4.00;1.60;;;13.80;77.40;;;;;;5082431;28;20028;-84
2022/01/03 03:18:32;;;;;;;4.13;1.60;;;13.80;77.40;;;;;;5090976;28;20038;-86
2022/01/03 03:20:58;;;;;;;5.80;1.77;;;13.80;77.40;;;;;;5077558;28;20119;-89
2022/01/03 03:23:24;;;;;;;6.68;1.55;;;13.80;77.50;;;;;;5092814;28;20532;-85
2022/01/03 03:25:53;;;;;;;4.43;1.55;;;13.80;77.40;;;;;;5076510;28;20040;-85
2022/01/03 03:28:20;;;;;;;5.10;1.85;;;13.80;77.40;;;;;;5080927;28;20111;-86
2022/01/03 03:30:48;;;;;;;4.72;1.45;;;13.80;77.50;;;;;;5072811;28;20119;-83
2022/01/03 03:33:29;;;;;;;3.97;1.38;;;13.80;77.50;;;;;;5093025;28;20036;-85
2022/01/03 03:35:58;;;;;;;4.28;1.55;;;13.80;77.40;;;;;;5104230;28;20039;-85
2022/01/03 03:38:27;;;;;;;4.60;1.85;;;13.70;77.40;;;;;;5092314;28;20038;-83
2022/01/03 03:40:57;;;;;;;4.90;1.52;;;13.80;77.40;;;;;;5063599;28;20468;-85
2022/01/03 03:43:30;;;;;;;3.55;1.52;;;13.70;77.40;;;;;;5068373;28;20480;-87
2022/01/03 03:45:57;;;;;;;4.35;1.60;;;13.70;77.40;;;;;;5102216;28;20036;-88
2022/01/03 03:48:23;;;;;;;6.05;1.58;;;13.80;77.40;;;;;;5076589;28;20037;-85
2022/01/03 03:50:50;;;;;;;5.18;1.60;;;13.70;77.40;;;;;;5092592;28;20116;-85
2022/01/03 03:53:16;;;;;;;4.60;1.58;;;13.70;77.40;;;;;;5084341;28;20056;-85
2022/01/03 03:55:44;;;;;;;3.60;1.75;;;13.70;77.40;;;;;;5067467;28;20029;-85
2022/01/03 03:58:13;;;;;;;5.95;1.70;;;13.70;77.40;;;;;;5100886;28;20482;-85
2022/01/03 04:00:39;;;;;;;3.78;1.50;;;13.70;77.40;;;;;;5082273;28;20028;-86
2022/01/03 04:03:06;;;;;;;5.30;1.52;;;13.70;77.40;;;;;;5083473;28;20032;-85
2022/01/03 04:05:33;;;;;;;5.35;1.77;;;13.70;77.40;;;;;;5075438;28;20024;-87
2022/01/03 04:08:02;;;;;;;3.75;1.88;;;13.70;77.50;;;;;;5110468;28;20028;-85
2022/01/03 04:10:27;;;;;;;4.18;1.55;;;13.70;77.40;;;;;;5083529;28;20024;-89
2022/01/03 04:12:54;;;;;;;5.13;1.80;;;13.70;77.40;;;;;;5092111;28;20028;-86
2022/01/03 04:15:23;;;;;;;6.15;2.17;;;13.70;77.40;;;;;;5069677;28;20092;-85
2022/01/03 04:17:51;;;;;;;6.32;1.80;;;13.70;77.50;;;;;;5087128;28;20095;-84
2022/01/03 04:20:19;;;;;;;5.53;1.67;;;13.70;77.40;;;;;;5085820;28;20062;-86
2022/01/03 04:22:45;;;;;;;5.03;1.83;;;13.70;77.50;;;;;;5100564;28;20154;-87
2022/01/03 04:25:12;;;;;;;6.78;2.10;;;13.70;77.40;;;;;;5098261;28;20053;-86
2022/01/03 04:27:39;;;;;;;6.40;2.00;;;13.70;77.50;;;;;;5082869;28;20078;-86
2022/01/03 04:30:05;;;;;;;6.95;2.33;;;13.70;77.40;;;;;;5081008;28;20067;-85
2022/01/03 04:32:31;;;;;;;5.07;2.05;;;13.70;77.40;;;;;;5072043;28;20027;-84
2022/01/03 04:34:57;;;;;;;2.67;1.52;;;13.70;77.40;;;;;;5082599;28;20028;-85
2022/01/03 04:37:23;;;;;;;4.05;1.77;;;13.60;77.40;;;;;;5095275;28;20016;-84
2022/01/03 04:39:50;;;;;;;4.10;1.90;;;13.70;77.40;;;;;;5067159;28;20028;-84
2022/01/03 04:42:16;;;;;;;5.40;2.17;;;13.70;77.40;;;;;;5091943;28;20034;-88
2022/01/03 04:44:43;;;;;;;4.53;1.77;;;13.60;77.40;;;;;;5058848;28;20043;-84
2022/01/03 04:47:10;;;;;;;3.28;1.60;;;13.60;77.40;;;;;;5075338;28;20050;-87
2022/01/03 04:49:37;;;;;;;4.70;1.80;;;13.60;77.40;;;;;;5063846;28;20032;-86
2022/01/03 04:52:03;;;;;;;4.60;1.67;;;13.70;77.40;;;;;;5058539;28;20063;-85
2022/01/03 04:54:31;;;;;;;4.82;1.77;;;13.60;77.40;;;;;;5064524;28;20080;-85
2022/01/03 04:56:59;;;;;;;5.70;1.95;;;13.60;77.40;;;;;;5100090;28;20092;-85
2022/01/03 04:59:26;;;;;;;5.20;2.20;;;13.60;77.40;;;;;;5100448;28;20036;-87
2022/01/03 05:01:52;;;;;;;4.15;1.55;;;13.60;77.40;;;;;;5076899;28;20561;-84
2022/01/03 05:04:18;;;;;;;8.32;2.08;;;13.60;77.30;;;;;;5084163;28;20053;-85
2022/01/03 05:06:44;;;;;;;4.38;1.90;;;13.60;77.40;;;;;;5092699;28;20024;-84
2022/01/03 05:09:10;;;;;;;5.18;2.05;;;13.60;77.40;;;;;;5073400;28;20039;-85
2022/01/03 05:11:36;;;;;;;4.95;2.15;;;13.60;77.40;;;;;;5083661;28;20103;-84
2022/01/03 05:14:02;;;;;;;7.20;2.33;;;13.60;77.40;;;;;;5075321;28;20146;-84
2022/01/03 05:16:28;;;;;;;4.50;2.05;;;13.60;77.40;;;;;;5092803;28;20028;-84
2022/01/03 05:18:54;;;;;;;6.88;2.28;;;13.60;77.40;;;;;;5092296;28;20384;-85
2022/01/03 05:21:20;;;;;;;4.28;1.83;;;13.60;77.40;;;;;;5058238;28;20117;-86
2022/01/03 05:23:48;;;;;;;4.70;1.75;;;13.60;77.40;;;;;;5075346;28;20476;-85
2022/01/03 05:26:17;;;;;;;5.15;2.00;;;13.60;77.40;;;;;;5079240;28;20037;-84
2022/01/03 05:28:45;;;;;;;7.40;2.08;;;13.60;77.40;;;;;;5076855;28;20028;-86
2022/01/03 05:31:12;;;;;;;4.03;1.80;;;13.60;77.40;;;;;;5064003;28;20028;-85
2022/01/03 05:33:39;;;;;;;6.25;1.95;;;13.60;77.40;;;;;;5075480;28;20035;-86
2022/01/03 05:36:06;;;;;;;5.90;2.13;;;13.60;77.40;;;;;;5075480;28;20032;-85
2022/01/03 05:38:32;;;;;;;5.63;1.70;;;13.60;77.40;;;;;;5098285;28;20130;-85
2022/01/03 05:40:58;;;;;;;6.72;2.33;;;13.60;77.40;;;;;;5074291;28;20024;-85
2022/01/03 05:43:24;;;;;;;5.05;2.38;;;13.60;77.40;;;;;;5074059;28;20035;-85
2022/01/03 05:45:50;;;;;;;5.80;1.88;;;13.60;77.40;;;;;;5058255;28;20392;-85
2022/01/03 05:48:17;;;;;;;4.05;1.80;;;13.60;77.40;;;;;;5106553;28;20030;-89
2022/01/03 05:50:44;;;;;;;7.90;2.15;;;13.60;77.40;;;;;;5070577;28;20027;-84
2022/01/03 05:53:10;;;;;;;4.28;1.65;;;13.50;77.30;;;;;;5077548;28;20534;-85
2022/01/03 05:55:36;;;;;;;6.05;2.30;;;13.60;77.40;;;;;;5077510;28;20016;-84
2022/01/03 05:58:03;;;;;;;6.15;1.92;;;13.60;77.40;;;;;;5079746;28;20020;-85
2022/01/03 06:00:31;;;;;;;6.43;1.83;;;13.60;77.40;;;;;;5083539;28;20114;-85
2022/01/03 06:02:58;;;;;;;5.18;2.03;;;13.60;77.40;;;;;;5102665;28;20047;-86
2022/01/03 06:08:17;;;;;;;4.57;2.08;;;13.60;77.40;;;;;;5086941;28;20063;-84
2022/01/03 06:10:50;;;;;;;5.40;1.83;;;13.60;77.40;;;;;;5094455;28;20119;-84
2022/01/03 06:13:23;;;;;;;6.00;2.22;;;13.50;77.30;;;;;;5076109;28;20408;-84
2022/01/03 06:15:51;;;;;;;5.90;2.13;;;13.50;77.30;;;;;;5082335;28;20024;-85
2022/01/03 06:18:18;;;;;;;8.30;2.20;;;13.50;77.30;;;;;;5090103;28;20380;-84
2022/01/03 06:20:48;;;;;;;6.07;2.13;;;13.50;77.40;;;;;;5101318;28;20032;-85
2022/01/03 06:23:17;;;;;;;6.00;2.17;;;13.50;77.40;;;;;;5087082;28;20050;-85
2022/01/03 06:25:44;;;;;;;5.70;2.00;;;13.50;77.40;;;;;;5076565;28;20127;-84
2022/01/03 06:28:11;;;;;;;5.07;1.98;;;13.50;77.30;;;;;;5092798;28;20102;-85
2022/01/03 06:30:43;;;;;;;4.43;1.80;;;13.50;77.40;;;;;;5077927;28;20039;-86
2022/01/03 06:33:10;;;;;;;3.75;1.60;;;13.50;77.40;;;;;;5085276;28;20020;-85
2022/01/03 06:35:37;;;;;;;4.03;1.75;;;13.50;77.40;;;;;;5086207;28;20028;-89
2022/01/03 06:38:04;;;;;;;5.40;1.73;;;13.50;77.30;;;;;;5098144;28;20031;-85
2022/01/03 06:40:30;;;;;;;4.05;2.05;;;13.50;77.40;;;;;;5089381;28;20044;-85
2022/01/03 06:42:56;;;;;;;5.90;1.85;;;13.50;78.00;;;;;;5105326;28;20027;-85
2022/01/03 06:45:24;;;;;;;5.88;2.00;;;13.60;77.40;;;;;;5082520;28;20545;-84
2022/01/03 06:47:52;;;;;;;4.70;2.30;;;13.50;77.40;;;;;;5093505;28;20035;-90
2022/01/03 06:50:18;;;;;;;5.60;1.77;;;13.50;77.40;;;;;;5090546;28;20039;-84
2022/01/03 06:52:44;;;;;;;6.82;1.70;;;13.50;77.40;;;;;;5106255;28;20529;-85
2022/01/03 06:55:15;;;;;;;6.25;1.92;;;13.50;77.40;;;;;;5085402;28;20023;-85
2022/01/03 06:57:45;;;;;;;6.82;3.03;;;13.50;77.40;;;;;;5084966;28;20028;-84
2022/01/03 07:00:12;;;;;;;5.35;1.65;;;13.50;77.30;;;;;;5082143;28;20714;-88
2022/01/03 07:02:42;;;;;;;3.95;2.08;;;13.50;77.30;;;;;;5094693;28;20020;-84
2022/01/03 07:05:13;;;;;;;3.40;1.60;;;13.50;77.40;;;;;;5091752;28;20456;-85
2022/01/03 07:07:40;;;;;;;4.28;1.90;;;13.50;77.40;;;;;;5085902;28;20034;-85
2022/01/03 07:10:09;;;;;;;5.75;2.03;;;13.50;77.40;;;;;;5091375;28;20069;-85
2022/01/03 07:12:35;;;;;;;6.70;2.10;;;13.50;77.30;;;;;;5095019;28;20166;-85
2022/01/03 07:20:13;;;;;;;6.45;2.20;;;13.50;77.30;;;;;;5094553;28;20032;-85
2022/01/03 07:22:40;;;;;;;5.03;2.10;;;13.50;77.30;;;;;;5097366;28;20019;-87
2022/01/03 07:25:08;;;;;;;5.25;1.95;;;13.50;77.30;;;;;;5080930;28;20093;-85
2022/01/03 07:27:37;;;;;;;5.53;2.00;;;13.50;77.30;;;;;;5085489;28;20050;-85
2022/01/03 07:30:04;;;;;;;5.60;2.08;;;13.50;77.30;;;;;;5099511;28;20487;-85
2022/01/03 07:32:30;;;;;;;4.30;1.73;;;13.50;77.30;;;;;;5093237;28;20032;-84
2022/01/03 07:34:56;;;;;;;6.47;2.33;;;13.50;77.30;;;;;;5076155;28;20037;-85
2022/01/03 07:37:22;;;;;;;3.90;1.77;;;13.50;77.30;;;;;;5087585;28;20377;-84
2022/01/03 07:39:52;;;;;;;5.65;2.10;;;13.50;77.30;;;;;;5082944;28;20024;-84
2022/01/03 07:42:18;;;;;;;5.90;1.88;;;13.50;77.30;;;;;;5107989;28;20032;-84
2022/01/03 07:44:51;;;;;;;4.20;1.67;;;13.50;77.30;;;;;;5079717;28;20026;-86
2022/01/03 07:47:17;;;;;;;6.25;1.80;;;13.50;77.30;;;;;;5077319;28;20028;-84
2022/01/03 07:49:43;;;;;;;5.38;1.80;;;13.50;77.30;;;;;;5068346;28;20533;-84
2022/01/03 07:52:09;;;;;;;4.78;1.80;;;13.50;77.30;;;;;;5075457;28;20024;-85
2022/01/03 07:54:35;;;;;;;5.43;2.03;;;13.50;77.20;;;;;;5066277;28;20035;-83
2022/01/03 07:57:01;;;;;;;4.50;1.90;;;13.50;77.30;;;;;;5085690;28;20479;-84
2022/01/03 07:59:26;;;;;;;5.82;2.05;;;13.50;77.30;;;;;;5098851;28;20126;-84
2022/01/03 08:01:53;;;;;;;6.50;2.20;;;13.50;77.20;;;;;;5092279;28;20055;-84
2022/01/03 08:04:18;;;;;;;3.95;2.20;;;13.50;77.30;;;;;;5075377;28;20028;-84
2022/01/03 08:06:45;;;;;;;6.20;1.90;;;13.50;77.30;;;;;;5059153;28;20081;-84
2022/01/03 08:09:11;;;;;;;4.97;1.90;;;13.50;77.30;;;;;;5097469;28;20566;-83
2022/01/03 08:11:36;;;;;;;4.60;1.70;;;13.50;77.20;;;;;;5089971;28;20024;-85
2022/01/03 08:14:02;;;;;;;4.20;2.00;;;13.50;77.30;;;;;;5091663;28;20361;-84
2022/01/03 08:16:28;;;;;;;7.88;2.28;;;13.50;77.20;;;;;;5084329;28;20028;-84
2022/01/03 08:18:54;;;;;;;7.40;2.40;;;13.50;77.30;;;;;;5078821;28;20042;-86
2022/01/03 08:21:20;;;;;;;4.40;1.75;;;13.50;77.20;;;;;;5076824;28;20024;-85
2022/01/03 08:23:46;;;;;;;6.68;1.95;;;13.50;77.30;;;;;;5102398;27;20127;-85
2022/01/03 08:26:12;;;;;;;3.42;1.73;;;13.50;77.30;;;;;;5090371;28;20100;-84
2022/01/03 08:28:38;;;;;;;5.55;1.90;;;13.50;77.20;;;;;;5056163;28;20086;-85
2022/01/03 08:31:04;;;;;;;4.47;1.58;;;13.50;77.30;;;;;;5090120;28;20025;-86
2022/01/03 08:33:29;;;;;;;6.82;2.15;;;13.50;77.30;;;;;;5087735;28;20027;-84
2022/01/03 08:35:57;;;;;;;4.47;2.05;;;13.50;77.30;;;;;;5058504;28;20468;-83
2022/01/03 08:38:29;;;;;;;3.47;1.92;;;13.50;77.30;;;;;;5088337;28;20035;-86
2022/01/03 08:40:54;;;;;;;3.67;1.83;;;13.50;77.30;;;;;;5095311;28;20494;-83
2022/01/03 08:43:20;;;;;;;7.35;2.13;;;13.50;77.20;;;;;;5068559;28;20121;-82
2022/01/03 08:45:46;;;;;;;5.20;1.95;;;13.50;77.30;;;;;;5091278;28;20119;-81
2022/01/03 08:48:12;;;;;;;5.00;1.83;;;13.50;77.30;;;;;;5082808;28;20031;-80
2022/01/03 08:50:38;;;;;;;4.72;1.90;;;13.50;77.20;;;;;;5083414;28;20036;-82
2022/01/03 08:53:04;;;;;;;4.05;1.88;;;13.50;77.20;;;;;;5066078;28;20027;-83
2022/01/03 08:55:30;;;;;;;4.65;1.90;;;13.50;77.80;;;;;;5074634;28;20032;-82
2022/01/03 08:57:58;;;;;;;3.15;1.73;;;13.50;77.20;;;;;;5106207;28;20093;-83
2022/01/03 09:00:25;;;;;;;6.63;1.92;;;13.50;77.20;;;;;;5092427;28;20070;-83
2022/01/03 09:02:51;;;;;;;3.72;1.60;;;13.50;77.20;;;;;;5098585;28;20036;-84
2022/01/03 09:05:17;;;;;;;4.43;1.80;;;13.50;77.20;;;;;;5074618;28;20029;-84
2022/01/03 09:07:42;;;;;;;5.45;1.75;;;13.50;77.20;;;;;;5074812;28;20017;-84
2022/01/03 09:10:09;;;;;;;4.95;2.15;;;13.50;77.20;;;;;;5090851;28;20472;-82
2022/01/03 09:12:34;;;;;;;4.72;2.00;;;13.50;77.20;;;;;;5096513;28;20044;-82
2022/01/03 09:15:01;;;;;;;4.45;1.90;;;13.50;77.20;;;;;;5078522;28;20082;-82
2022/01/03 09:17:27;;;;;;;3.88;1.75;;;13.50;77.20;;;;;;5065562;28;20086;-81
2022/01/03 09:19:53;;;;;;;5.57;2.00;;;13.50;77.20;;;;;;5083132;28;20035;-81
2022/01/03 09:22:25;;;;;;;6.10;2.20;;;13.50;77.20;;;;;;5095044;28;20487;-82
2022/01/03 09:30:10;;;;;;;2.27;1.47;;;13.60;77.30;;;;;;5086149;28;20032;-82
2022/01/03 09:32:36;;;;;;;4.43;1.70;;;13.50;77.20;;;;;;5078118;28;20707;-83
2022/01/03 09:35:06;;;;;;;4.45;2.05;;;13.50;77.20;;;;;;5096128;28;20111;-86
2022/01/03 09:37:34;;;;;;;4.82;2.15;;;13.50;77.20;;;;;;5083163;28;20058;-85
2022/01/03 09:40:00;;;;;;;7.00;2.30;;;13.50;77.20;;;;;;5081610;28;20036;-81
2022/01/03 09:42:28;;;;;;;5.57;1.90;;;13.60;77.30;;;;;;5097244;28;20059;-81
2022/01/03 09:44:56;;;;;;;4.40;1.85;;;13.60;77.30;;;;;;5087480;28;20031;-84
2022/01/03 09:47:22;;;;;;;5.63;2.05;;;13.60;77.30;;;;;;5108260;28;20223;-85
2022/01/03 09:49:49;;;;;;;6.25;2.33;;;13.60;77.20;;;;;;5077640;28;20377;-84
2022/01/03 09:52:23;;;;;;;5.40;2.22;;;13.50;77.20;;;;;;5083796;28;20119;-82
2022/01/03 09:54:50;;;;;;;4.57;2.00;;;13.60;77.30;;;;;;5082061;28;20035;-84
2022/01/03 09:57:21;;;;;;;4.60;1.90;;;13.60;77.20;;;;;;5069005;28;20430;-82
2022/01/03 09:59:47;;;;;;;5.20;2.00;;;13.60;77.20;;;;;;5094192;28;20473;-81
2022/01/03 10:02:16;;;;;;;5.55;2.40;;;13.60;77.20;;;;;;5084455;28;20111;-81
2022/01/03 10:04:42;;;;;;;5.63;1.88;;;13.60;77.20;;;;;;5082972;28;20075;-81
2022/01/03 10:07:11;;;;;;;4.53;2.20;;;13.60;77.20;;;;;;5098888;28;20023;-82
2022/01/03 10:09:42;;;;;;;5.15;2.10;;;13.60;77.20;;;;;;5060361;28;20042;-82
2022/01/03 10:12:16;;;;;;;5.63;1.90;;;13.60;77.20;;;;;;5100124;28;20036;-86
2022/01/03 10:14:42;;;;;;;4.03;1.70;;;13.60;77.20;;;;;;5107926;28;20111;-80
2022/01/03 10:17:09;;;;;;;5.78;1.88;;;13.60;77.10;;;;;;5102122;28;20112;-86
2022/01/03 10:19:56;;;;;;;4.88;2.10;;;13.60;77.20;;;;;;5079327;28;20050;-81
2022/01/03 10:22:27;;;;;;;4.40;2.00;;;13.60;77.30;;;;;;5083990;28;20028;-80
2022/01/03 10:24:55;;;;;;;3.53;1.60;;;13.60;77.10;;;;;;5103857;28;20020;-83
2022/01/03 10:27:23;;;;;;;4.60;2.03;;;13.60;77.10;;;;;;5069220;28;20044;-82
2022/01/03 10:29:57;;;;;;;4.05;1.90;;;13.60;77.10;;;;;;5087264;28;20357;-83
2022/01/03 10:32:29;;;;;;;4.93;2.17;;;13.60;77.30;;;;;;5092678;28;20024;-83
2022/01/03 10:34:57;;;;;;;4.97;2.10;;;13.60;77.20;;;;;;5111481;27;20461;-80
2022/01/03 10:37:36;;;;;;;4.90;2.15;;;13.60;77.10;;;;;;5100939;28;20505;-82
2022/01/03 10:40:18;;;;;;;3.97;2.10;;;13.60;77.30;;;;;;5076289;28;20043;-80
2022/01/03 10:42:44;;;;;;;3.92;1.83;;;13.60;77.30;;;;;;5092919;28;20085;-80
2022/01/03 10:45:10;;;;;;;2.80;1.55;;;13.60;77.10;;;;;;5076443;28;20028;-81
2022/01/03 10:47:37;;;;;;;4.50;2.00;;;13.60;77.20;;;;;;5056249;28;20094;-81
2022/01/03 10:50:16;;;;;;;5.70;1.85;;;13.60;77.20;;;;;;5087248;28;20024;-81
2022/01/03 10:52:43;;;;;;;4.80;2.28;;;13.60;77.30;;;;;;5094366;28;20477;-81
2022/01/03 10:55:18;;;;;;;5.80;2.33;;;13.60;77.20;;;;;;5101450;28;20011;-81
2022/01/03 10:57:48;;;;;;;;;;;13.60;77.30;;;;;;5097624;28;20047;-80
2022/01/03 11:00:24;;;;;;;3.78;1.60;;;13.60;77.10;;;;;;5098249;28;19923;-82
2022/01/03 11:03:07;;;;;;;5.88;1.75;;;13.60;77.10;;;;;;5083871;28;20058;-79
2022/01/03 11:05:42;;;;;;;3.75;1.60;;;13.60;77.30;;;;;;5094419;28;20035;-79
2022/01/03 11:10:44;;;;;;;4.88;2.28;;;13.60;77.30;;;;;;5075740;28;20036;-81
2022/01/03 11:13:23;;;;;;;6.32;1.83;;;13.60;77.30;;;;;;5098644;28;20091;-82
2022/01/03 11:16:05;;;;;;;4.40;1.77;;;13.60;77.30;;;;;;5101266;27;20036;-81
2022/01/03 11:18:31;;;;;;;4.20;1.92;;;13.60;77.30;;;;;;5112070;28;20080;-81
2022/01/03 11:21:09;;;;;;;3.22;1.67;;;13.60;77.30;;;;;;5089854;28;20020;-84
2022/01/03 11:23:36;;;;;;;4.40;2.17;;;13.70;77.30;;;;;;5100676;28;20068;-82
2022/01/03 11:26:16;;;;;;;3.65;1.67;;;13.70;77.30;;;;;;5083412;28;20122;-81
2022/01/03 11:28:43;;;;;;;5.07;2.20;;;13.70;77.30;;;;;;5099799;28;20029;-81
2022/01/03 11:31:11;;;;;;;5.25;1.83;;;13.70;77.30;;;;;;5100469;28;20070;-81
2022/01/03 11:33:39;;;;;;;5.05;2.00;;;13.70;77.30;;;;;;5110689;28;20143;-82
2022/01/03 11:36:05;;;;;;;5.95;1.98;;;13.70;77.30;;;;;;5080824;28;20043;-82
2022/01/03 11:38:35;;;;;;;3.35;1.98;;;13.70;77.30;;;;;;5084775;28;20078;-82
2022/01/03 11:41:04;;;;;;;5.50;2.55;;;13.70;77.30;;;;;;5095232;28;20466;-82
2022/01/03 11:43:32;;;;;;;4.95;2.17;;;13.70;77.30;;;;;;5069489;28;20023;-82
2022/01/03 11:45:59;;;;;;;6.20;2.03;;;13.70;77.30;;;;;;5086753;28;20054;-82
2022/01/03 11:48:31;;;;;;;4.95;2.22;;;13.70;77.30;;;;;;5106090;28;20035;-81
2022/01/03 11:51:02;;;;;;;4.35;1.95;;;13.70;77.30;;;;;;5081821;28;20034;-81
2022/01/03 11:53:33;;;;;;;4.70;1.98;;;13.70;77.40;;;;;;5091969;28;20041;-81
2022/01/03 11:56:04;;;;;;;6.53;2.33;;;13.80;77.40;;;;;;5111767;28;20062;-82
2022/01/03 11:59:05;;;;;;;3.63;1.80;;;13.80;77.40;;;;;;5094453;28;20032;-80
2022/01/03 12:04:28;;;;;;;5.18;1.88;;;13.80;77.40;;;;;;5099364;28;20073;-81
2022/01/03 12:07:14;;;;;;;4.20;2.35;;;13.80;77.40;;;;;;5082083;28;20017;-83
2022/01/03 12:09:47;;;;;;;3.47;1.77;;;13.80;77.50;;;;;;5084040;28;20035;-81
2022/01/03 12:12:31;;;;;;;3.78;1.83;;;13.80;77.40;;;;;;5089523;28;20074;-86
2022/01/03 12:14:59;;;;;;;4.35;1.77;;;13.90;77.50;;;;;;5091180;28;20027;-81
2022/01/03 12:17:45;;;;;;;3.95;1.92;;;13.80;77.40;;;;;;5091038;28;20028;-81
2022/01/03 12:20:11;;;;;;;4.65;1.92;;;13.90;77.60;;;;;;5091181;28;20036;-80
2022/01/03 12:22:50;;;;;;;4.40;1.80;;;13.90;77.40;;;;;;5077398;28;20055;-81
2022/01/03 12:25:27;;;;;;;4.93;1.83;;;13.90;77.50;;;;;;5087173;28;20074;-82
2022/01/03 12:28:00;;;;;;;4.60;2.13;;;13.90;77.50;;;;;;5098607;28;20060;-82
2022/01/03 12:30:35;;;;;;;6.60;1.92;;;13.90;77.40;;;;;;5079233;28;20041;-85
2022/01/03 12:33:07;;;;;;;4.80;2.00;;;13.90;77.40;;;;;;5092470;28;20038;-82
2022/01/03 12:35:38;;;;;;;4.22;2.20;;;14.00;77.50;;;;;;5085497;28;20032;-81
2022/01/03 12:38:04;;;;;;;5.32;1.88;;;13.90;77.40;;;;;;5099416;28;20027;-81
2022/01/03 12:40:36;;;;;;;4.93;2.20;;;14.00;77.50;;;;;;5090996;28;20027;-81
2022/01/03 12:43:06;;;;;;;4.47;1.90;;;14.00;77.50;;;;;;5083595;28;20582;-81
2022/01/03 12:45:35;;;;;;;4.80;2.28;;;14.00;77.50;;;;;;5073974;28;20439;-81
2022/01/03 12:48:15;;;;;;;4.38;1.88;;;14.00;77.40;;;;;;5087862;28;20024;-84
2022/01/03 12:50:42;;;;;;;4.88;1.90;;;14.00;77.50;;;;;;5093557;28;20131;-84
2022/01/03 12:53:11;;;;;;;4.07;2.03;;;14.00;77.40;;;;;;5097115;28;20472;-85
2022/01/03 12:55:43;;;;;;;3.35;1.70;;;14.00;77.50;;;;;;5076518;28;20024;-82
2022/01/03 12:58:16;;;;;;;4.22;2.00;;;14.00;77.50;;;;;;5098295;28;20028;-82
2022/01/03 13:00:46;;;;;;;2.80;1.75;;;14.00;77.50;;;;;;5091036;28;20028;-84
2022/01/03 13:03:43;;;;;;;4.05;2.00;;;14.10;77.50;;;;;;5074366;28;20457;-82
2022/01/03 13:06:18;;;;;;;3.95;1.88;;;14.00;77.50;;;;;;5082098;28;20028;-83
2022/01/03 13:08:55;;;;;;;4.18;1.95;;;14.00;77.40;;;;;;5092654;28;20099;-82
2022/01/03 13:11:23;;;;;;;5.53;2.35;;;14.00;77.50;;;;;;5090295;28;20028;-89
2022/01/03 13:13:52;;;;;;;4.20;2.40;;;14.00;77.40;;;;;;5075478;28;20086;-82
2022/01/03 13:16:28;;;;;;;4.18;1.88;;;14.00;77.40;;;;;;5096392;28;20130;-85
2022/01/03 13:18:54;;;;;;;5.05;2.28;;;14.10;77.50;;;;;;5091505;28;20108;-81